Time;durP1;ratioP1;P1;durP2;ratioP2;P2;SDS_P1;SDS_P2;PMS_P1;PMS_P2;Temp;Humidity;BMP_temperature;BMP_pressure;BME280_temperature;BME280_humidity;BME280_pressure;Samples;Min_cycle;Max_cycle;Signal;HPM_P1;HPM_P2
2023/09/05 00:01:55;;;;;;;12.00;9.35;;;;;;;18.91;79.19;101292.75;4930465;28;1276872;-44
2023/09/05 00:04:22;;;;;;;13.60;10.18;;;;;;;18.89;79.33;101287.56;4975345;28;20393;-42
2023/09/05 00:06:48;;;;;;;12.85;8.88;;;;;;;18.88;79.49;101290.75;4957945;28;20055;-42
2023/09/05 00:09:18;;;;;;;14.15;9.25;;;;;;;18.87;79.67;101289.94;4975634;28;20501;-44
2023/09/05 00:11:45;;;;;;;14.32;9.57;;;;;;;18.85;79.76;101295.94;4974201;28;20058;-42
2023/09/05 00:14:12;;;;;;;15.48;9.50;;;;;;;18.83;79.67;101295.53;4974630;28;20059;-43
2023/09/05 00:16:39;;;;;;;25.88;8.43;;;;;;;18.81;79.91;101292.31;4975093;28;20057;-43
2023/09/05 00:19:06;;;;;;;14.82;10.40;;;;;;;18.80;80.09;101293.47;4975101;28;20051;-44
2023/09/05 00:21:33;;;;;;;11.98;8.18;;;;;;;18.78;80.17;101298.69;4973544;28;20061;-45
2023/09/05 00:24:45;;;;;;;15.50;9.50;;;;;;;18.77;80.21;101296.28;4973414;28;20052;-42
2023/09/05 00:27:12;;;;;;;12.05;8.05;;;;;;;18.75;80.19;101299.47;4966056;28;20493;-48
2023/09/05 00:29:41;;;;;;;12.13;9.40;;;;;;;18.75;80.05;101281.81;4970151;28;20409;-44
2023/09/05 00:32:09;;;;;;;12.18;8.13;;;;;;;18.73;79.92;101285.03;4973406;28;20058;-42
2023/09/05 00:34:38;;;;;;;11.65;8.63;;;;;;;18.73;80.19;101287.00;4974764;28;20093;-43
2023/09/05 00:37:07;;;;;;;12.05;8.57;;;;;;;18.71;80.12;101293.03;4957666;28;20043;-42
2023/09/05 00:39:35;;;;;;;11.27;8.82;;;;;;;18.70;80.21;101285.78;4974530;28;20046;-43
2023/09/05 00:42:05;;;;;;;9.77;7.13;;;;;;;18.68;80.52;101271.34;4972559;28;20519;-44
2023/09/05 00:44:32;;;;;;;11.10;7.95;;;;;;;18.63;80.62;101268.09;4974153;28;20047;-42
2023/09/05 00:47:00;;;;;;;10.25;7.13;;;;;;;18.63;80.46;101263.28;4974428;28;20051;-43
2023/09/05 00:49:27;;;;;;;12.93;8.07;;;;;;;18.61;80.82;101262.84;4974443;28;20129;-42
2023/09/05 00:51:59;;;;;;;9.13;7.15;;;;;;;18.58;80.79;101258.03;4974327;28;20049;-43
2023/09/05 00:54:26;;;;;;;12.10;7.40;;;;;;;18.58;80.96;101260.03;4973190;28;20042;-44
2023/09/05 00:56:53;;;;;;;11.38;7.65;;;;;;;18.56;80.91;101263.22;4973744;28;20501;-43
2023/09/05 00:59:21;;;;;;;9.65;6.85;;;;;;;18.53;81.09;101257.59;4974215;28;20046;-43
2023/09/05 01:01:48;;;;;;;9.00;6.53;;;;;;;18.52;81.32;101253.97;4973737;28;20509;-42
2023/09/05 01:04:16;;;;;;;11.77;6.55;;;;;;;18.52;81.19;101258.78;4974876;28;20047;-42
2023/09/05 01:07:00;;;;;;;9.00;7.07;;;;;;;18.49;81.34;101253.94;4972134;28;20069;-44
2023/09/05 01:09:42;;;;;;;8.88;6.55;;;;;;;18.48;81.53;101255.16;4972815;28;20050;-43
2023/09/05 01:12:09;;;;;;;9.27;7.60;;;;;;;18.45;81.59;101253.88;4973812;28;20050;-42
2023/09/05 01:14:36;;;;;;;9.50;6.50;;;;;;;18.45;81.65;101251.09;4971138;28;20057;-46
2023/09/05 01:17:05;;;;;;;8.20;6.25;;;;;;;18.45;81.60;101251.09;4973580;28;20050;-44
2023/09/05 01:19:37;;;;;;;10.15;6.80;;;;;;;18.44;81.91;101249.47;4973187;28;20497;-47
2023/09/05 01:22:16;;;;;;;8.10;5.40;;;;;;;18.42;81.84;101235.03;4973941;28;20037;-42
2023/09/05 01:24:47;;;;;;;8.95;6.18;;;;;;;18.43;82.17;101230.22;4956599;28;20054;-43
2023/09/05 01:27:19;;;;;;;7.17;5.70;;;;;;;18.41;81.67;101227.81;4973812;28;20043;-45
2023/09/05 01:29:47;;;;;;;10.68;6.30;;;;;;;18.40;81.86;101234.59;4973784;28;20098;-43
2023/09/05 01:32:14;;;;;;;7.22;5.30;;;;;;;18.38;82.00;101222.97;4972089;28;20042;-42
2023/09/05 01:34:41;;;;;;;8.35;5.93;;;;;;;18.36;82.35;101219.75;4973729;28;20061;-44
2023/09/05 01:37:14;;;;;;;7.47;5.38;;;;;;;18.35;82.49;101217.34;4974095;28;20051;-44
2023/09/05 01:39:41;;;;;;;7.97;5.63;;;;;;;18.34;82.67;101221.31;4973406;28;20882;-42
2023/09/05 01:42:08;;;;;;;7.90;5.25;;;;;;;18.33;82.65;101219.72;4973398;28;20069;-43
2023/09/05 01:44:36;;;;;;;9.20;5.18;;;;;;;18.31;82.77;101216.50;4954128;28;20058;-43
2023/09/05 01:47:03;;;;;;;8.73;5.28;;;;;;;18.30;82.92;101217.66;4973773;28;20050;-45
2023/09/05 01:49:30;;;;;;;9.95;6.05;;;;;;;18.29;83.05;101216.06;4973358;28;20038;-44
2023/09/05 01:51:57;;;;;;;7.72;5.07;;;;;;;18.28;83.11;101218.06;4955808;28;20520;-43
2023/09/05 01:54:24;;;;;;;9.23;5.82;;;;;;;18.27;83.35;101206.03;4974405;28;20046;-44
2023/09/05 01:56:51;;;;;;;7.70;5.13;;;;;;;18.26;83.30;101203.63;4970559;28;20552;-42
2023/09/05 01:59:21;;;;;;;7.65;5.53;;;;;;;18.25;83.65;101199.22;4956131;28;20049;-44
2023/09/05 02:01:48;;;;;;;5.82;4.80;;;;;;;18.24;83.63;101195.59;4972823;28;20097;-44
2023/09/05 02:04:15;;;;;;;5.95;4.78;;;;;;;18.23;83.67;101193.19;4973044;28;20065;-45
2023/09/05 02:06:42;;;;;;;7.53;5.80;;;;;;;18.22;83.49;101194.38;4972818;28;20039;-42
2023/09/05 02:09:09;;;;;;;7.63;5.38;;;;;;;18.20;83.67;101202.38;4971180;28;20042;-42
2023/09/05 02:11:36;;;;;;;6.97;4.90;;;;;;;18.18;83.69;101190.75;4972955;28;20039;-42
2023/09/05 02:14:02;;;;;;;8.30;5.53;;;;;;;18.16;84.05;101193.13;4971689;28;20035;-44
2023/09/05 02:16:30;;;;;;;9.68;4.85;;;;;;;18.15;84.01;101188.72;4970764;28;20093;-45
2023/09/05 02:19:00;;;;;;;8.60;5.20;;;;;;;18.12;83.91;101195.91;4972032;28;20074;-42
2023/09/05 02:21:27;;;;;;;10.43;4.95;;;;;;;18.11;84.21;101191.47;4954935;28;20042;-43
2023/09/05 02:23:54;;;;;;;6.80;4.40;;;;;;;18.10;84.05;101183.47;4971157;28;20043;-42
2023/09/05 02:26:20;;;;;;;5.75;5.00;;;;;;;18.11;84.29;101185.06;4972314;28;20050;-42
2023/09/05 02:28:47;;;;;;;10.10;5.07;;;;;;;18.10;84.30;101186.25;4983058;28;20061;-42
2023/09/05 02:31:14;;;;;;;6.72;4.25;;;;;;;18.09;84.39;101181.84;4974767;28;20417;-43
2023/09/05 02:33:41;;;;;;;5.65;4.18;;;;;;;18.07;84.27;101176.63;4969053;28;20109;-43
2023/09/05 02:36:18;;;;;;;6.57;4.82;;;;;;;18.04;84.38;101169.00;4971929;28;20142;-44
2023/09/05 02:38:45;;;;;;;8.20;5.03;;;;;;;18.01;84.60;101171.75;4955442;28;20501;-42
2023/09/05 02:41:13;;;;;;;8.95;4.63;;;;;;;17.98;84.76;101164.13;4971298;28;20050;-43
2023/09/05 02:43:41;;;;;;;8.95;4.72;;;;;;;17.96;84.79;101167.31;4971673;28;20051;-43
2023/09/05 02:46:08;;;;;;;8.35;4.53;;;;;;;17.94;84.89;101163.28;4972721;28;20046;-42
2023/09/05 02:48:40;;;;;;;5.93;4.53;;;;;;;17.92;85.12;101165.69;4972560;28;20148;-42
2023/09/05 02:51:09;;;;;;;8.88;5.38;;;;;;;17.90;85.15;101168.84;4972214;28;20122;-44
2023/09/05 02:53:36;;;;;;;8.10;4.38;;;;;;;17.89;85.21;101170.06;4972170;28;20082;-43
2023/09/05 02:56:04;;;;;;;7.80;4.70;;;;;;;17.89;85.30;101166.44;4972170;28;20047;-44
2023/09/05 02:58:32;;;;;;;8.05;4.30;;;;;;;17.86;85.65;101162.41;4970853;28;20047;-42
2023/09/05 03:01:04;;;;;;;7.82;4.28;;;;;;;17.84;85.61;101155.59;4998671;23;20057;-42
2023/09/05 03:03:32;;;;;;;6.85;4.00;;;;;;;17.85;85.71;101160.78;5008219;28;20073;-42
2023/09/05 03:06:15;;;;;;;8.35;3.90;;;;;;;17.83;85.91;101154.78;5011063;28;20041;-43
2023/09/05 03:08:44;;;;;;;8.32;4.10;;;;;;;17.81;86.07;101154.38;5011128;28;20046;-44
2023/09/05 03:11:19;;;;;;;6.35;3.72;;;;;;;17.81;86.14;101159.97;5009384;28;20045;-44
2023/09/05 03:13:47;;;;;;;7.40;4.10;;;;;;;17.80;86.26;101157.53;5010944;28;20132;-43
2023/09/05 03:16:14;;;;;;;4.45;4.05;;;;;;;17.80;86.39;101151.94;5009948;28;20141;-42
2023/09/05 03:18:41;;;;;;;8.63;4.32;;;;;;;17.79;86.69;101153.13;5010341;28;20069;-44
2023/09/05 03:21:08;;;;;;;6.30;3.80;;;;;;;17.80;86.81;101152.75;5010770;28;20456;-43
2023/09/05 03:23:36;;;;;;;7.75;4.53;;;;;;;17.78;86.84;101149.53;5011240;28;20510;-43
2023/09/05 03:26:02;;;;;;;7.72;4.85;;;;;;;17.79;86.75;101145.50;5011175;28;20046;-43
2023/09/05 03:28:41;;;;;;;8.23;4.88;;;;;;;17.78;87.01;101146.72;5011103;28;20487;-42
2023/09/05 03:31:08;;;;;;;7.80;5.35;;;;;;;17.79;87.05;101153.13;5011111;28;20191;-44
2023/09/05 03:33:35;;;;;;;9.95;5.65;;;;;;;17.77;87.38;101155.50;5013085;28;20583;-43
2023/09/05 03:36:03;;;;;;;5.55;4.35;;;;;;;17.75;87.40;101152.28;5014470;28;20136;-43
2023/09/05 03:38:29;;;;;;;7.70;5.35;;;;;;;17.72;87.70;101145.44;5014935;28;20038;-43
2023/09/05 03:40:57;;;;;;;9.85;5.57;;;;;;;17.73;87.77;101146.25;5014572;28;20443;-44
2023/09/05 03:43:24;;;;;;;9.30;5.53;;;;;;;17.75;87.77;101149.47;5015146;28;20100;-43
2023/09/05 03:45:51;;;;;;;6.95;5.05;;;;;;;17.73;88.01;101146.25;5014099;28;20038;-45
2023/09/05 03:48:18;;;;;;;10.57;5.55;;;;;;;17.72;88.06;101144.63;5014655;28;20038;-43
2023/09/05 03:50:45;;;;;;;6.05;4.75;;;;;;;17.70;88.33;101150.63;5014398;28;20046;-42
2023/09/05 03:53:12;;;;;;;7.38;5.40;;;;;;;17.69;88.45;101145.41;5015031;28;20518;-42
2023/09/05 03:55:39;;;;;;;10.90;4.78;;;;;;;17.66;88.47;101130.19;5014253;28;20181;-42
2023/09/05 03:58:05;;;;;;;8.50;5.43;;;;;;;17.64;88.85;101130.56;5014179;28;20116;-42
2023/09/05 04:00:33;;;;;;;8.15;5.25;;;;;;;17.64;88.92;101121.34;5014192;28;20046;-43
2023/09/05 04:03:04;;;;;;;8.10;5.78;;;;;;;17.62;88.93;101118.97;5012961;28;20061;-43
2023/09/05 04:05:34;;;;;;;10.40;5.57;;;;;;;17.58;89.08;101106.91;5014050;28;20426;-43
2023/09/05 04:08:01;;;;;;;8.98;5.32;;;;;;;17.58;89.16;101117.28;5014508;28;20057;-42
2023/09/05 04:10:28;;;;;;;6.65;5.05;;;;;;;17.55;89.38;101113.25;5014278;28;20407;-43
2023/09/05 04:12:56;;;;;;;7.40;5.15;;;;;;;17.53;89.53;101114.84;5012926;28;20599;-42
2023/09/05 04:15:23;;;;;;;7.53;5.35;;;;;;;17.51;89.78;101118.00;5013880;28;20162;-43
2023/09/05 04:17:53;;;;;;;8.15;5.10;;;;;;;17.49;89.86;101113.97;5014114;28;20052;-42
2023/09/05 04:20:20;;;;;;;6.18;4.90;;;;;;;17.46;89.98;101123.94;5013955;28;20048;-43
2023/09/05 04:22:47;;;;;;;8.02;5.10;;;;;;;17.47;90.22;101122.75;5014096;28;20132;-43
2023/09/05 04:25:14;;;;;;;14.45;5.55;;;;;;;17.47;90.35;101117.13;5013925;28;20092;-42
2023/09/05 04:27:41;;;;;;;6.57;5.10;;;;;;;17.47;90.41;101127.56;5014131;28;20559;-44
2023/09/05 04:30:09;;;;;;;7.97;4.75;;;;;;;17.46;90.43;101121.16;5013742;28;20104;-42
2023/09/05 04:32:36;;;;;;;10.82;5.15;;;;;;;17.44;90.56;101129.13;5012328;28;20034;-44
2023/09/05 04:35:04;;;;;;;12.45;5.25;;;;;;;17.42;90.88;101123.09;5013029;28;20491;-44
2023/09/05 04:37:31;;;;;;;7.13;5.20;;;;;;;17.40;90.84;101125.47;5013432;28;20108;-42
2023/09/05 04:39:58;;;;;;;10.43;6.13;;;;;;;17.38;90.95;101119.44;5012083;28;20526;-43
2023/09/05 04:42:28;;;;;;;13.93;6.10;;;;;;;17.37;91.35;101123.44;5013804;28;20126;-42
2023/09/05 04:44:55;;;;;;;13.90;5.80;;;;;;;17.36;91.48;101132.22;5013733;28;20510;-42
2023/09/05 04:47:26;;;;;;;11.52;6.15;;;;;;;17.35;91.56;101137.00;5011908;28;20042;-44
2023/09/05 04:49:58;;;;;;;8.27;5.35;;;;;;;17.33;91.77;101139.38;5013485;28;20065;-42
2023/09/05 04:52:29;;;;;;;9.48;5.32;;;;;;;17.33;91.84;101139.38;5012156;28;20046;-43
2023/09/05 04:54:59;;;;;;;7.83;5.10;;;;;;;17.33;91.88;101132.97;5013319;28;20050;-43
2023/09/05 04:57:27;;;;;;;9.43;4.63;;;;;;;17.30;92.01;101140.13;5011475;28;20030;-43
2023/09/05 04:59:57;;;;;;;12.20;6.05;;;;;;;17.29;92.28;101123.75;5013368;28;20050;-43
2023/09/05 05:02:26;;;;;;;10.30;5.30;;;;;;;17.28;92.44;101130.53;5004187;28;20454;-45
2023/09/05 05:04:53;;;;;;;11.15;5.90;;;;;;;17.28;92.78;101127.72;5007001;28;20046;-45
2023/09/05 05:07:21;;;;;;;12.35;6.00;;;;;;;17.27;93.00;101124.09;5012880;28;20050;-43
2023/09/05 05:09:47;;;;;;;9.00;5.63;;;;;;;17.28;93.05;101125.72;5012942;28;20084;-43
2023/09/05 05:12:17;;;;;;;9.13;5.63;;;;;;;17.27;93.17;101124.09;5012933;28;20057;-43
2023/09/05 05:14:44;;;;;;;11.55;6.38;;;;;;;17.27;93.34;101112.91;5013024;28;20122;-43
2023/09/05 05:17:13;;;;;;;15.60;7.85;;;;;;;17.27;93.55;101115.72;5012693;28;20038;-43
2023/09/05 05:19:40;;;;;;;14.93;6.43;;;;;;;17.27;93.73;101118.50;5012844;28;20042;-44
2023/09/05 05:22:08;;;;;;;15.68;6.68;;;;;;;17.27;93.82;101121.31;5012558;28;20443;-43
2023/09/05 05:24:34;;;;;;;16.60;8.00;;;;;;;17.26;93.96;101108.50;5012527;28;20045;-43
2023/09/05 05:27:01;;;;;;;11.75;5.53;;;;;;;17.26;94.34;101104.91;5012618;28;20046;-43
2023/09/05 05:29:32;;;;;;;11.50;6.43;;;;;;;17.25;94.24;101115.28;5010916;28;20042;-43
2023/09/05 05:32:00;;;;;;;18.75;6.55;;;;;;;17.24;94.28;101094.09;5011909;28;20557;-43
2023/09/05 05:34:29;;;;;;;16.73;7.10;;;;;;;17.23;94.57;101095.28;5011397;28;20110;-43
2023/09/05 05:36:56;;;;;;;15.32;7.03;;;;;;;17.22;94.86;101104.88;5002517;28;20042;-43
2023/09/05 05:39:25;;;;;;;13.57;7.72;;;;;;;17.21;95.17;101092.03;5012396;28;20060;-42
2023/09/05 05:41:52;;;;;;;14.23;7.43;;;;;;;17.22;95.15;101095.66;5008913;28;20467;-43
2023/09/05 05:44:19;;;;;;;15.00;7.93;;;;;;;17.21;95.13;101100.44;5012366;28;20037;-43
2023/09/05 05:46:46;;;;;;;13.65;7.93;;;;;;;17.22;95.32;101087.25;5011508;28;20049;-44
2023/09/05 05:49:13;;;;;;;19.38;8.20;;;;;;;17.20;95.70;101104.44;5012158;28;20392;-44
2023/09/05 05:51:40;;;;;;;15.38;7.15;;;;;;;17.18;95.87;101104.03;5012835;28;20061;-43
2023/09/05 05:54:07;;;;;;;12.48;7.53;;;;;;;17.19;95.77;101100.03;5011196;28;20054;-42
2023/09/05 05:56:34;;;;;;;18.67;9.25;;;;;;;17.20;96.02;101107.25;5011547;28;20046;-49
2023/09/05 05:59:02;;;;;;;15.70;8.55;;;;;;;17.19;96.22;101111.22;5012303;28;20046;-43
2023/09/05 06:01:29;;;;;;;15.30;8.10;;;;;;;17.21;96.20;101110.84;5011881;28;20053;-46
2023/09/05 06:03:55;;;;;;;14.45;8.57;;;;;;;17.19;96.87;101110.41;5011957;28;20088;-48
2023/09/05 06:06:22;;;;;;;17.70;8.63;;;;;;;17.20;96.74;101117.63;5010713;28;20488;-43
2023/09/05 06:08:49;;;;;;;14.77;8.85;;;;;;;17.19;96.75;101114.00;5012698;28;20099;-44
2023/09/05 06:11:16;;;;;;;18.38;7.88;;;;;;;17.18;96.92;101120.81;5010538;28;20042;-43
2023/09/05 06:13:43;;;;;;;19.55;9.63;;;;;;;17.19;96.92;101108.41;5010200;28;20061;-45
2023/09/05 06:16:10;;;;;;;19.40;9.00;;;;;;;17.19;97.26;101119.59;5011523;28;20053;-43
2023/09/05 06:18:37;;;;;;;22.80;8.60;;;;;;;17.20;97.45;101126.81;5011821;28;20042;-43
2023/09/05 06:21:04;;;;;;;14.82;8.05;;;;;;;17.21;97.60;101120.03;5011972;28;20300;-43
2023/09/05 06:23:32;;;;;;;15.77;9.43;;;;;;;17.21;97.81;101113.66;5008186;28;20762;-43
2023/09/05 06:25:59;;;;;;;15.68;8.68;;;;;;;17.21;98.00;101103.25;5011921;28;20563;-43
2023/09/05 06:28:26;;;;;;;12.70;9.10;;;;;;;17.23;98.05;101114.06;5011716;28;20069;-44
2023/09/05 06:30:57;;;;;;;22.65;9.07;;;;;;;17.23;98.16;101116.88;5009955;28;20112;-44
2023/09/05 06:33:26;;;;;;;15.70;10.05;;;;;;;17.24;98.34;101110.88;5008899;28;20041;-43
2023/09/05 06:35:53;;;;;;;24.17;11.07;;;;;;;17.25;98.69;101115.28;5009851;28;20046;-43
2023/09/05 06:38:22;;;;;;;18.80;11.77;;;;;;;17.27;98.72;101112.09;5010101;28;20050;-43
2023/09/05 06:40:50;;;;;;;18.75;9.88;;;;;;;17.26;98.96;101108.50;5004707;28;20030;-44
2023/09/05 06:43:17;;;;;;;17.17;10.05;;;;;;;17.29;99.23;101112.56;5010712;28;20037;-43
2023/09/05 06:45:44;;;;;;;15.57;9.57;;;;;;;17.31;99.15;101107.38;5011396;28;20414;-44
2023/09/05 06:48:10;;;;;;;21.08;10.20;;;;;;;17.34;99.26;101115.78;5011253;28;20041;-43
2023/09/05 06:50:37;;;;;;;19.92;10.23;;;;;;;17.38;99.46;101125.03;5011331;28;20132;-43
2023/09/05 06:53:04;;;;;;;15.95;10.15;;;;;;;17.42;99.56;101127.91;5011668;28;20164;-42
2023/09/05 06:55:34;;;;;;;20.38;9.27;;;;;;;17.45;99.74;101136.31;5011436;28;20069;-42
2023/09/05 06:58:02;;;;;;;15.13;9.43;;;;;;;17.47;99.66;101133.94;5011312;28;20123;-43
2023/09/05 07:00:29;;;;;;;19.42;8.55;;;;;;;17.51;99.88;101142.38;5011536;28;20509;-44
2023/09/05 07:02:56;;;;;;;22.65;9.73;;;;;;;17.56;99.87;101139.28;5011399;28;20127;-48
2023/09/05 07:05:24;;;;;;;12.93;8.98;;;;;;;17.59;100.00;101147.72;5003803;28;20034;-44
2023/09/05 07:07:51;;;;;;;18.70;10.27;;;;;;;17.66;100.00;101146.19;5013478;28;20050;-43
2023/09/05 07:10:18;;;;;;;17.33;9.63;;;;;;;17.72;100.00;101150.25;5014099;28;20049;-44
2023/09/05 07:12:45;;;;;;;22.17;9.52;;;;;;;17.79;100.00;101153.91;5015445;28;20136;-44
2023/09/05 07:15:12;;;;;;;18.70;8.73;;;;;;;17.83;100.00;101151.97;5015015;28;20096;-42
2023/09/05 07:17:38;;;;;;;21.85;10.98;;;;;;;17.88;100.00;101153.63;5015692;28;20108;-44
2023/09/05 07:20:07;;;;;;;17.98;9.60;;;;;;;17.91;100.00;101147.25;5012772;28;20507;-42
2023/09/05 07:22:34;;;;;;;19.98;9.98;;;;;;;17.95;100.00;101148.09;5015169;28;20061;-47
2023/09/05 07:25:01;;;;;;;22.20;12.32;;;;;;;17.99;100.00;101144.13;5013212;28;20500;-43
2023/09/05 07:27:28;;;;;;;16.35;9.07;;;;;;;18.05;100.00;101141.78;5014834;28;20108;-44
2023/09/05 07:29:55;;;;;;;19.90;11.30;;;;;;;18.09;100.00;101137.00;5014838;28;20052;-43
2023/09/05 07:32:22;;;;;;;21.67;10.43;;;;;;;18.12;100.00;101139.03;5015079;28;20045;-44
2023/09/05 07:34:49;;;;;;;18.95;10.43;;;;;;;18.14;100.00;101139.44;5013577;28;20061;-45
2023/09/05 07:37:16;;;;;;;17.58;10.68;;;;;;;18.19;100.00;101147.50;5014717;28;20042;-42
2023/09/05 07:39:45;;;;;;;26.80;10.88;;;;;;;18.24;99.89;101147.16;5014670;28;20061;-43
2023/09/05 07:42:12;;;;;;;21.67;10.63;;;;;;;18.29;100.00;101155.22;5015002;28;20411;-45
2023/09/05 07:44:39;;;;;;;20.00;11.38;;;;;;;18.33;100.00;101156.03;5012630;28;20051;-43
2023/09/05 07:47:06;;;;;;;21.85;11.40;;;;;;;18.38;99.94;101155.69;5012222;28;20046;-42
2023/09/05 07:49:37;;;;;;;20.55;10.70;;;;;;;18.44;99.42;101153.31;5014981;28;20050;-41
2023/09/05 07:52:04;;;;;;;23.20;11.80;;;;;;;18.50;99.59;101149.00;5029887;28;20053;-42
2023/09/05 07:54:31;;;;;;;18.48;11.45;;;;;;;18.53;99.25;101142.63;5014489;28;20054;-43
2023/09/05 07:56:58;;;;;;;24.27;12.02;;;;;;;18.58;99.38;101136.66;5014077;28;20045;-45
2023/09/05 07:59:25;;;;;;;20.08;13.05;;;;;;;18.59;99.10;101133.44;5012690;28;20574;-44
2023/09/05 08:01:52;;;;;;;25.17;11.70;;;;;;;18.63;98.90;101144.69;5014056;28;20050;-45
2023/09/05 08:04:19;;;;;;;22.70;12.80;;;;;;;18.68;98.93;101136.72;5011635;28;20504;-44
2023/09/05 08:06:47;;;;;;;20.33;11.70;;;;;;;18.71;98.99;101133.13;5014158;28;20546;-45
2023/09/05 08:09:14;;;;;;;22.48;12.32;;;;;;;18.76;98.34;101137.56;5013398;28;20511;-43
2023/09/05 08:11:41;;;;;;;24.27;12.88;;;;;;;18.82;98.62;101145.22;5014066;28;20030;-43
2023/09/05 08:14:08;;;;;;;22.35;12.85;;;;;;;18.88;98.18;101136.44;5011469;28;20474;-44
2023/09/05 08:16:35;;;;;;;19.48;12.10;;;;;;;18.93;98.32;101136.06;5013791;28;20038;-44
2023/09/05 08:19:02;;;;;;;29.60;15.13;;;;;;;19.00;98.51;101130.50;5012673;28;20046;-45
2023/09/05 08:21:29;;;;;;;18.48;11.80;;;;;;;19.04;98.08;101134.91;5013980;28;20137;-44
2023/09/05 08:23:56;;;;;;;20.85;10.88;;;;;;;19.13;98.67;101132.56;5013156;28;20136;-45
2023/09/05 08:26:22;;;;;;;18.42;11.75;;;;;;;19.23;99.38;101133.81;5014244;28;20076;-45
2023/09/05 08:28:50;;;;;;;21.40;11.57;;;;;;;19.29;99.75;101126.63;5013827;28;20069;-44
2023/09/05 08:31:18;;;;;;;20.92;12.18;;;;;;;19.36;100.00;101137.88;5013753;28;20041;-44
2023/09/05 08:33:45;;;;;;;19.13;12.30;;;;;;;19.46;100.00;101139.94;5013821;28;20050;-48
2023/09/05 08:36:12;;;;;;;21.30;11.63;;;;;;;19.59;100.00;101141.19;5012470;28;20045;-44
2023/09/05 08:38:39;;;;;;;17.08;11.95;;;;;;;19.74;100.00;101142.84;5017040;28;20399;-44
2023/09/05 08:41:06;;;;;;;21.02;12.65;;;;;;;19.95;100.00;101136.44;5015228;28;20037;-45
2023/09/05 08:43:35;;;;;;;19.35;12.32;;;;;;;20.18;100.00;101138.88;5013452;28;20499;-46
2023/09/05 08:46:03;;;;;;;19.60;11.23;;;;;;;20.44;100.00;101144.13;5013284;28;20046;-44
2023/09/05 08:48:30;;;;;;;20.30;12.15;;;;;;;20.89;100.00;101145.28;5013502;28;20100;-48
2023/09/05 08:51:18;;;;;;;18.15;10.38;;;;;;;21.61;100.00;101148.25;5013535;28;20053;-43
2023/09/05 08:53:58;;;;;;;16.20;10.55;;;;;;;22.51;99.99;101154.88;5013105;28;20392;-43
2023/09/05 08:56:26;;;;;;;15.65;10.85;;;;;;;23.47;92.63;101145.03;5013353;28;20053;-45
2023/09/05 08:58:55;;;;;;;22.77;11.20;;;;;;;24.46;86.24;101148.41;5016137;28;20053;-45
2023/09/05 09:01:24;;;;;;;18.25;10.93;;;;;;;25.23;80.63;101146.97;5020789;28;20058;-46
2023/09/05 09:03:54;;;;;;;17.10;10.18;;;;;;;25.91;76.75;101164.16;5010616;28;20046;-43
2023/09/05 09:06:25;;;;;;;12.40;10.05;;;;;;;26.34;73.27;101146.94;5011845;28;20145;-45
2023/09/05 09:08:53;;;;;;;16.80;9.68;;;;;;;26.79;69.27;101155.53;5013185;28;20403;-44
2023/09/05 09:11:22;;;;;;;16.35;8.68;;;;;;;27.41;66.21;101150.56;5012960;28;20057;-46
2023/09/05 09:14:02;;;;;;;13.68;9.57;;;;;;;27.60;63.92;101149.59;4961842;28;20053;-44
2023/09/05 09:16:30;;;;;;;14.25;9.60;;;;;;;27.50;61.88;101159.25;5013251;28;20045;-46
2023/09/05 09:19:04;;;;;;;14.40;8.68;;;;;;;26.76;62.30;101150.72;5011721;28;20041;-44
2023/09/05 09:21:40;;;;;;;17.40;9.10;;;;;;;25.88;63.31;101148.00;5013012;28;20092;-46
2023/09/05 09:24:10;;;;;;;14.85;10.10;;;;;;;25.18;62.70;101127.63;5003718;28;20049;-44
2023/09/05 09:26:38;;;;;;;15.65;10.02;;;;;;;24.38;63.96;101119.44;5012576;28;20412;-44
2023/09/05 09:29:09;;;;;;;14.13;9.00;;;;;;;23.63;65.02;101091.50;5012783;28;20055;-45
2023/09/05 09:31:42;;;;;;;16.97;10.20;;;;;;;23.16;66.09;101081.22;5011450;28;20045;-44
2023/09/05 09:34:10;;;;;;;14.77;8.88;;;;;;;22.80;67.00;101063.09;5017643;28;20057;-45
2023/09/05 09:36:38;;;;;;;18.50;9.65;;;;;;;22.63;67.59;101052.81;5011966;28;20077;-45
2023/09/05 09:39:12;;;;;;;22.88;11.25;;;;;;;22.54;67.86;101053.28;5013460;28;20078;-44
2023/09/05 09:41:43;;;;;;;14.70;9.20;;;;;;;22.60;68.17;101067.72;5012433;28;20068;-44
2023/09/05 09:44:24;;;;;;;19.92;9.38;;;;;;;23.49;66.56;101085.22;5012402;28;20049;-44
2023/09/05 09:46:51;;;;;;;11.60;8.90;;;;;;;24.13;64.22;101097.22;5012629;28;20091;-44
2023/09/05 09:49:19;;;;;;;15.43;8.77;;;;;;;23.86;63.80;101081.44;5012445;28;20038;-47
2023/09/05 09:51:53;;;;;;;14.55;8.18;;;;;;;24.33;64.20;101077.44;5012676;28;20080;-45
2023/09/05 09:54:29;;;;;;;11.77;7.78;;;;;;;25.22;61.68;101076.56;5012270;28;20455;-46
2023/09/05 09:57:00;;;;;;;11.70;6.53;;;;;;;25.92;59.53;101082.69;5011718;28;20042;-44
2023/09/05 09:59:35;;;;;;;9.90;6.38;;;;;;;26.57;58.06;101080.63;5009487;28;20399;-44
2023/09/05 10:02:08;;;;;;;10.25;6.30;;;;;;;27.17;56.62;101081.78;5006128;28;20065;-48
2023/09/05 10:04:42;;;;;;;9.93;5.25;;;;;;;27.49;53.91;101106.44;5009168;28;20977;-47
2023/09/05 10:07:17;;;;;;;8.88;5.97;;;;;;;27.63;53.60;101117.41;5012483;28;20096;-44
2023/09/05 10:09:45;;;;;;;7.95;5.45;;;;;;;27.96;51.43;101115.91;5011889;28;20053;-44
2023/09/05 10:12:14;;;;;;;10.20;5.55;;;;;;;27.95;50.84;101125.72;5010727;28;20050;-44
2023/09/05 10:14:42;;;;;;;8.50;5.97;;;;;;;28.00;49.91;101130.84;5011523;28;20727;-44
2023/09/05 10:17:09;;;;;;;7.85;5.55;;;;;;;28.13;50.02;101123.13;5011834;28;20673;-44
2023/09/05 10:19:38;;;;;;;11.27;5.95;;;;;;;28.31;48.91;101111.94;5010298;28;20046;-43
2023/09/05 10:22:07;;;;;;;14.30;5.88;;;;;;;28.33;48.55;101111.47;5011739;28;20140;-44
2023/09/05 10:24:35;;;;;;;11.50;5.35;;;;;;;28.39;48.85;101109.63;5012410;28;20396;-44
2023/09/05 10:27:03;;;;;;;13.52;5.93;;;;;;;28.35;48.07;101104.09;5011874;28;20050;-44
2023/09/05 10:29:44;;;;;;;17.02;7.00;;;;;;;28.26;47.89;101097.47;5011688;28;20053;-45
2023/09/05 10:32:20;;;;;;;10.32;6.32;;;;;;;27.97;48.61;101094.75;5011735;28;20100;-45
2023/09/05 10:34:47;;;;;;;13.43;5.72;;;;;;;27.54;48.51;101085.97;5009142;28;20042;-46
2023/09/05 10:37:17;;;;;;;16.25;7.65;;;;;;;27.47;48.68;101084.16;5011432;28;20044;-45
2023/09/05 10:39:45;;;;;;;9.30;6.25;;;;;;;27.62;48.35;101087.34;5014671;28;20451;-45
2023/09/05 10:42:12;;;;;;;9.40;6.25;;;;;;;27.76;48.58;101087.72;5011491;28;20042;-45
2023/09/05 10:44:41;;;;;;;11.23;6.65;;;;;;;27.68;48.36;101085.53;5011579;28;20046;-44
2023/09/05 10:47:25;;;;;;;8.38;5.10;;;;;;;27.56;48.30;101077.81;5011192;28;20129;-45
2023/09/05 10:49:59;;;;;;;10.82;5.13;;;;;;;27.41;48.77;101082.31;5011357;28;20412;-45
2023/09/05 10:52:27;;;;;;;12.73;5.22;;;;;;;27.09;48.89;101077.56;5009936;28;20049;-44
2023/09/05 10:54:54;;;;;;;8.35;5.00;;;;;;;26.50;50.28;101075.91;5011088;28;20048;-43
2023/09/05 10:57:50;;;;;;;15.43;5.85;;;;;;;25.61;51.71;101065.16;5011104;28;20147;-46
2023/09/05 11:00:20;;;;;;;8.35;5.10;;;;;;;25.15;53.12;101059.72;4998559;28;20141;-45
2023/09/05 11:02:48;;;;;;;10.33;5.40;;;;;;;24.77;54.04;101062.88;5008220;28;20582;-48
2023/09/05 11:05:18;;;;;;;11.45;6.03;;;;;;;24.50;54.82;101065.03;5011029;28;20315;-44
2023/09/05 11:07:50;;;;;;;10.57;5.80;;;;;;;24.34;55.45;101055.63;5011549;28;20077;-47
2023/09/05 11:10:31;;;;;;;11.48;6.07;;;;;;;24.11;56.33;101054.41;5005051;28;20073;-44
2023/09/05 11:13:14;;;;;;;11.77;6.10;;;;;;;23.80;57.28;101044.38;4998230;28;20054;-44
2023/09/05 11:15:44;;;;;;;14.40;6.80;;;;;;;23.62;58.12;101055.16;5009357;28;20295;-47
2023/09/05 11:18:14;;;;;;;10.23;6.33;;;;;;;23.40;58.82;101071.66;5007326;28;20049;-43
2023/09/05 11:20:46;;;;;;;12.43;7.72;;;;;;;23.28;59.56;101071.38;5010049;28;20050;-44
2023/09/05 11:23:13;;;;;;;14.63;7.65;;;;;;;23.19;60.37;101091.69;5011201;28;20061;-44
2023/09/05 11:25:55;;;;;;;14.45;7.75;;;;;;;23.14;60.38;101086.47;5007877;28;20487;-45